Time;durP1;ratioP1;P1;durP2;ratioP2;P2;SDS_P1;SDS_P2;PMS_P1;PMS_P2;Temp;Humidity;BMP_temperature;BMP_pressure;BME280_temperature;BME280_humidity;BME280_pressure;Samples;Min_cycle;Max_cycle;Signal;HPM_P1;HPM_P2
2023/05/08 00:05:15;;;;;;;0.73;0.43;;;;;;;7.38;67.22;102213.63;15489485;28;20039;-50
2023/05/08 00:12:49;;;;;;;1.08;0.50;;;;;;;8.00;65.25;102219.78;15472365;28;20167;-49
2023/05/08 00:20:22;;;;;;;1.02;0.75;;;;;;;7.93;64.30;102216.09;15484812;28;20038;-50
2023/05/08 00:27:57;;;;;;;0.57;0.57;;;;;;;7.29;66.66;102223.41;15471493;28;20042;-50
2023/05/08 00:35:29;;;;;;;0.40;0.40;;;;;;;7.51;65.99;102227.44;15484648;28;20624;-48
2023/05/08 00:43:03;;;;;;;0.70;0.70;;;;;;;7.60;65.80;102229.19;15488275;28;20273;-50
2023/05/08 00:50:36;;;;;;;1.30;0.77;;;;;;;7.49;65.50;102234.75;15506298;28;20042;-48
2023/05/08 00:58:11;;;;;;;1.53;0.87;;;;;;;7.22;67.10;102241.00;15464587;28;20042;-50
2023/05/08 01:05:44;;;;;;;0.57;0.50;;;;;;;7.24;67.22;102238.22;15485585;28;20046;-51
2023/05/08 01:13:28;;;;;;;3.00;1.20;;;;;;;6.92;67.68;102242.19;15482136;28;20034;-50
2023/05/08 01:21:13;;;;;;;41.28;1.30;;;;;;;6.76;67.68;102201.97;15498155;28;20287;-49
2023/05/08 01:29:36;;;;;;;1.85;0.90;;;;;;;6.89;67.92;102237.16;15480850;28;20061;-50
2023/05/08 01:37:15;;;;;;;3.30;0.68;;;;;;;6.53;69.43;102242.41;15493138;28;20585;-51
2023/05/08 01:44:53;;;;;;;1.33;0.98;;;;;;;6.45;69.50;102247.63;15484157;28;20042;-49
2023/05/08 01:52:33;;;;;;;1.27;0.43;;;;;;;6.51;69.16;102240.84;15470664;28;20057;-50
2023/05/08 02:00:08;;;;;;;2.80;1.88;;;;;;;6.16;70.06;102244.22;15478212;28;20092;-49
2023/05/08 02:07:47;;;;;;;1.52;1.42;;;;;;;6.56;68.46;102242.09;15494350;28;20046;-52
2023/05/08 02:15:24;;;;;;;2.95;1.08;;;;;;;6.64;67.71;102236.03;15475554;28;20535;-49
2023/05/08 02:22:59;;;;;;;1.23;0.70;;;;;;;6.35;68.91;102242.31;15499806;28;20046;-51
2023/05/08 02:30:33;;;;;;;1.33;0.70;;;;;;;6.28;69.04;102240.38;15478873;28;20233;-51
2023/05/08 02:38:09;;;;;;;3.17;1.02;;;;;;;6.18;69.53;102242.22;15486862;28;20046;-53
2023/05/08 02:45:48;;;;;;;1.67;1.27;;;;;;;6.12;69.56;102241.00;15494358;28;20074;-50
2023/05/08 02:53:31;;;;;;;1.85;1.38;;;;;;;6.05;69.52;102232.72;15492251;28;20506;-52
2023/05/08 03:01:08;;;;;;;1.23;0.82;;;;;;;6.08;69.22;102232.44;15491230;28;20043;-51
2023/05/08 03:08:43;;;;;;;1.35;1.08;;;;;;;6.19;69.06;102241.25;15496250;28;20089;-49
2023/05/08 03:16:20;;;;;;;2.03;1.30;;;;;;;5.89;69.50;102243.94;15476844;28;20042;-52
2023/05/08 03:23:57;;;;;;;2.83;1.52;;;;;;;6.04;68.94;102241.69;15490739;28;20053;-51
2023/05/08 03:31:32;;;;;;;2.40;1.17;;;;;;;5.90;69.27;102247.44;15471533;28;20034;-52
2023/05/08 03:39:07;;;;;;;1.05;0.88;;;;;;;5.78;69.43;102244.09;15473008;28;20074;-52
2023/05/08 03:46:42;;;;;;;1.23;1.08;;;;;;;5.67;70.17;102254.88;15463683;28;20042;-52
2023/05/08 03:54:16;;;;;;;0.50;0.30;;;;;;;5.99;68.50;102256.44;15462346;28;20496;-48
2023/05/08 04:01:54;;;;;;;1.05;0.73;;;;;;;5.83;69.23;102249.00;15472243;28;20073;-51
2023/05/08 04:09:35;;;;;;;0.95;0.88;;;;;;;5.90;69.35;102242.09;15488298;28;20052;-49
2023/05/08 04:17:15;;;;;;;1.40;0.90;;;;;;;6.25;68.10;102253.97;15472815;28;20044;-49
2023/05/08 04:24:54;;;;;;;0.85;0.45;;;;;;;6.28;67.93;102259.03;15470056;28;20047;-54
2023/05/08 04:32:29;;;;;;;1.70;0.88;;;;;;;6.41;67.96;102256.06;15477329;28;20140;-50
2023/05/08 04:40:04;;;;;;;1.25;0.88;;;;;;;6.14;68.50;102268.31;15526711;28;20047;-57
2023/05/08 04:47:39;;;;;;;6.25;1.45;;;;;;;6.77;66.92;102278.38;15487192;28;20049;-49
2023/05/08 04:55:13;;;;;;;0.88;0.73;;;;;;;6.44;68.23;102287.78;15483231;28;20050;-51
2023/05/08 05:02:46;;;;;;;1.83;1.33;;;;;;;6.60;67.54;102290.66;15501959;23;20041;-53
2023/05/08 05:10:21;;;;;;;1.23;0.63;;;;;;;6.98;66.60;102289.63;15531835;28;20052;-55
2023/05/08 05:17:53;;;;;;;1.85;1.58;;;;;;;7.22;65.57;102298.91;15564847;28;20049;-53
2023/05/08 05:25:28;;;;;;;3.23;1.40;;;;;;;7.57;63.88;102303.47;15538086;28;20084;-53
2023/05/08 05:33:00;;;;;;;3.25;1.10;;;;;;;8.07;62.51;102302.94;15546594;28;20581;-53
2023/05/08 05:40:35;;;;;;;0.87;0.70;;;;;;;8.50;60.65;102302.06;15544020;28;20469;-53
2023/05/08 05:48:08;;;;;;;0.77;0.55;;;;;;;9.69;57.68;102312.69;15569057;28;20095;-53
2023/05/08 05:55:42;;;;;;;3.25;1.10;;;;;;;9.95;56.61;102309.88;15534608;28;20124;-54
2023/05/08 06:03:15;;;;;;;1.30;1.20;;;;;;;10.60;54.42;102309.00;15558584;28;20048;-54
2023/05/08 06:10:50;;;;;;;1.42;0.57;;;;;;;11.08;52.80;102310.66;15561513;28;20442;-52
2023/05/08 06:18:23;;;;;;;1.48;0.82;;;;;;;11.55;50.61;102312.41;15558633;28;20046;-54
2023/05/08 06:25:57;;;;;;;0.98;0.50;;;;;;;11.32;52.40;102320.44;15559256;28;20057;-52
2023/05/08 06:33:30;;;;;;;1.00;0.88;;;;;;;10.87;52.53;102315.81;15558979;28;20050;-52
2023/05/08 06:41:05;;;;;;;0.87;0.33;;;;;;;11.54;50.53;102321.50;15573808;28;20053;-55
2023/05/08 06:48:37;;;;;;;0.47;0.47;;;;;;;12.08;48.85;102326.03;15555603;28;20050;-52
2023/05/08 06:56:11;;;;;;;0.80;0.60;;;;;;;12.40;45.36;102311.41;15546524;28;20050;-55
2023/05/08 07:03:44;;;;;;;0.32;0.30;;;;;;;12.23;44.91;102324.22;15554848;28;20046;-55
2023/05/08 07:11:18;;;;;;;0.80;0.47;;;;;;;13.79;42.83;102330.22;15554811;28;20060;-54
2023/05/08 07:18:51;;;;;;;1.45;0.28;;;;;;;14.71;40.93;102314.97;15561576;28;20104;-50
2023/05/08 07:26:25;;;;;;;0.00;0.00;;;;;;;14.24;39.37;102320.03;15558753;28;20309;-53
2023/05/08 07:33:58;;;;;;;3.63;0.57;;;;;;;13.52;39.89;102310.22;15552114;28;20046;-55
2023/05/08 07:41:32;;;;;;;0.30;0.30;;;;;;;13.88;38.78;102319.28;15554631;28;20426;-56
2023/05/08 07:49:05;;;;;;;1.75;0.50;;;;;;;14.22;38.75;102315.84;15543366;28;20088;-56
2023/05/08 07:56:39;;;;;;;1.60;0.67;;;;;;;14.38;38.26;102320.13;15550524;28;20060;-54
2023/05/08 08:04:11;;;;;;;1.30;0.52;;;;;;;13.52;37.82;102277.88;15531352;28;20340;-55
2023/05/08 08:11:46;;;;;;;0.53;0.53;;;;;;;13.28;39.87;102319.47;15553860;28;20076;-53
2023/05/08 08:19:18;;;;;;;0.35;0.35;;;;;;;13.44;39.03;102323.00;15551757;28;20491;-52
2023/05/08 08:26:52;;;;;;;0.87;0.20;;;;;;;14.07;39.16;102315.94;15551590;28;20116;-52
2023/05/08 08:34:25;;;;;;;1.27;0.43;;;;;;;14.49;38.01;102315.03;15547910;28;20038;-52
2023/05/08 08:42:00;;;;;;;0.60;0.60;;;;;;;14.06;37.47;102314.25;15545005;28;20042;-55
2023/05/08 08:49:35;;;;;;;0.20;0.20;;;;;;;14.51;36.80;102309.44;15544437;28;20045;-52
2023/05/08 08:57:11;;;;;;;0.80;0.70;;;;;;;14.41;38.10;102238.66;15545369;28;20456;-51
2023/05/08 09:04:44;;;;;;;1.42;0.70;;;;;;;14.71;36.10;102304.16;15549683;28;20105;-56
2023/05/08 09:12:18;;;;;;;0.90;0.52;;;;;;;15.34;36.35;102288.63;15548384;28;20085;-52
2023/05/08 09:19:52;;;;;;;0.40;0.35;;;;;;;15.36;36.56;102288.41;15549745;28;20042;-52
2023/05/08 09:27:28;;;;;;;0.47;0.32;;;;;;;15.92;33.53;102288.13;15549114;28;20208;-54
2023/05/08 09:35:02;;;;;;;1.33;0.50;;;;;;;15.86;32.58;102281.66;15554612;28;20046;-52
2023/05/08 09:42:39;;;;;;;0.40;0.20;;;;;;;15.80;32.86;102280.59;15530397;28;20049;-52
2023/05/08 09:50:12;;;;;;;0.82;0.63;;;;;;;16.03;33.34;102285.59;15561451;28;20042;-53
2023/05/08 09:57:57;;;;;;;0.90;0.52;;;;;;;16.47;33.22;102291.41;15560456;28;20045;-53
2023/05/08 10:05:31;;;;;;;2.75;0.68;;;;;;;16.43;33.73;102276.63;15549704;28;20129;-53
2023/05/08 10:13:06;;;;;;;3.60;0.50;;;;;;;16.62;32.77;102270.31;15559401;28;20052;-57
2023/05/08 10:20:40;;;;;;;1.75;0.60;;;;;;;17.14;32.52;102257.59;15568853;28;20454;-54
2023/05/08 10:28:23;;;;;;;2.80;0.93;;;;;;;17.72;31.37;102276.47;15558885;28;20054;-57
2023/05/08 10:35:56;;;;;;;0.30;0.22;;;;;;;17.67;32.66;102259.16;15557451;28;20060;-58
2023/05/08 10:43:30;;;;;;;;;;;;;;;17.64;34.37;102249.56;15556510;28;20045;-55
2023/05/08 10:51:11;;;;;;;1.02;0.43;;;;;;;17.92;31.40;102241.03;15554723;28;20341;-53
2023/05/08 10:58:45;;;;;;;1.75;0.43;;;;;;;18.39;30.62;102238.69;15542410;28;20065;-56
2023/05/08 11:06:38;;;;;;;0.50;0.25;;;;;;;18.93;29.55;102236.16;15557454;28;20045;-56
2023/05/08 11:14:15;;;;;;;0.40;0.40;;;;;;;18.34;29.27;102227.66;15558139;28;20319;-56
2023/05/08 11:22:14;;;;;;;0.70;0.47;;;;;;;18.11;29.89;102228.31;15547136;28;20050;-53
2023/05/08 11:30:23;;;;;;;0.60;0.30;;;;;;;18.12;29.72;102220.97;15544090;28;20412;-54
2023/05/08 11:38:14;;;;;;;0.80;0.20;;;;;;;18.63;29.30;102217.91;15547564;28;20454;-53
2023/05/08 11:45:49;;;;;;;0.30;0.30;;;;;;;19.54;27.37;102210.59;15541088;28;20091;-52
2023/05/08 11:53:23;;;;;;;3.78;0.55;;;;;;;19.43;28.32;102209.47;15551479;28;20363;-56
2023/05/08 12:00:57;;;;;;;0.80;0.35;;;;;;;19.67;28.10;102185.03;15551963;28;20042;-53
2023/05/08 12:08:30;;;;;;;1.00;0.30;;;;;;;19.68;27.33;102194.88;15552311;28;20054;-55
2023/05/08 12:16:04;;;;;;;0.93;0.40;;;;;;;19.86;27.39;102192.03;15550435;28;20049;-53
2023/05/08 12:23:37;;;;;;;1.23;0.35;;;;;;;20.50;26.42;102189.38;15539602;28;20376;-56
2023/05/08 12:31:13;;;;;;;0.57;0.20;;;;;;;20.50;26.32;102179.31;15551416;28;20410;-55
2023/05/08 12:38:47;;;;;;;0.35;0.10;;;;;;;20.05;27.18;102174.50;15547972;28;20049;-57
2023/05/08 12:46:22;;;;;;;0.43;0.20;;;;;;;20.08;25.71;102165.84;15553767;28;20581;-54
2023/05/08 12:53:55;;;;;;;0.57;0.28;;;;;;;20.28;25.18;102162.72;15545963;28;20488;-56
2023/05/08 13:01:29;;;;;;;0.77;0.40;;;;;;;20.38;25.87;102154.78;15534218;28;20446;-56
2023/05/08 13:09:02;;;;;;;0.13;0.13;;;;;;;20.71;26.03;102150.53;15529999;28;20042;-53
2023/05/08 13:16:43;;;;;;;0.95;0.40;;;;;;;21.04;24.66;102143.50;15531572;28;20125;-56
2023/05/08 13:24:16;;;;;;;1.02;0.17;;;;;;;21.70;25.70;102141.88;15562217;28;20107;-56
2023/05/08 13:31:50;;;;;;;0.30;0.20;;;;;;;19.18;27.55;102100.78;15536776;28;20087;-53
2023/05/08 13:39:22;;;;;;;1.85;0.57;;;;;;;19.10;29.01;102117.44;15555414;28;20409;-54
2023/05/08 13:46:57;;;;;;;0.57;0.47;;;;;;;18.98;30.09;102108.41;15548521;28;20499;-54
2023/05/08 13:54:29;;;;;;;1.95;0.55;;;;;;;19.18;29.74;102095.34;15568185;28;20111;-50
2023/05/08 14:02:03;;;;;;;0.17;0.15;;;;;;;19.25;30.25;102092.50;15549969;28;20049;-50
2023/05/08 14:09:36;;;;;;;0.65;0.30;;;;;;;19.02;28.65;102077.78;15554682;28;20045;-53
2023/05/08 14:17:10;;;;;;;0.55;0.47;;;;;;;19.02;30.34;102079.69;15543499;28;20238;-55
2023/05/08 14:24:43;;;;;;;0.45;0.45;;;;;;;18.51;29.56;102075.59;15551413;28;20045;-52
2023/05/08 14:32:18;;;;;;;0.75;0.63;;;;;;;18.76;29.71;102064.59;15554551;28;20038;-53
2023/05/08 14:39:53;;;;;;;1.13;0.40;;;;;;;18.25;28.88;102068.63;15553560;28;20045;-52
2023/05/08 14:47:27;;;;;;;1.00;0.25;;;;;;;18.50;29.07;102060.34;15539866;28;20045;-51
2023/05/08 14:54:59;;;;;;;2.78;0.73;;;;;;;18.36;29.29;102065.97;15554196;28;20422;-51
2023/05/08 15:02:36;;;;;;;1.00;0.50;;;;;;;18.04;30.90;102069.94;15559595;28;20037;-55
2023/05/08 15:10:09;;;;;;;0.68;0.35;;;;;;;18.01;30.83;102068.50;15552865;28;20598;-53
2023/05/08 15:17:43;;;;;;;1.42;0.43;;;;;;;18.17;30.47;102050.75;15540739;28;20042;-53
2023/05/08 15:25:16;;;;;;;1.45;0.57;;;;;;;18.00;30.06;102066.84;15559028;28;20046;-49
2023/05/08 15:32:51;;;;;;;;;;;;;;;17.68;31.94;102068.03;15533738;28;20042;-55
2023/05/08 15:40:24;;;;;;;0.20;0.20;;;;;;;17.84;30.41;102057.41;15511767;28;19922;-54
2023/05/08 15:47:58;;;;;;;1.20;0.35;;;;;;;17.74;31.12;102051.69;15550805;28;20041;-52
2023/05/08 15:55:30;;;;;;;2.13;0.57;;;;;;;17.78;31.39;102058.31;15532936;28;20510;-54
2023/05/08 16:03:05;;;;;;;0.90;0.30;;;;;;;17.75;31.40;102060.66;15554052;28;20053;-49
2023/05/08 16:10:39;;;;;;;0.32;0.22;;;;;;;17.53;31.82;102030.34;15536885;28;20217;-52
2023/05/08 16:18:13;;;;;;;1.52;0.70;;;;;;;17.31;31.01;102021.81;15533694;28;20148;-51
2023/05/08 16:25:46;;;;;;;0.60;0.50;;;;;;;17.45;32.21;102036.94;15550160;28;20093;-51
2023/05/08 16:33:25;;;;;;;0.77;0.50;;;;;;;17.24;30.91;102031.91;15545850;28;20487;-52
2023/05/08 16:41:01;;;;;;;1.40;0.65;;;;;;;17.18;31.42;102033.63;15549878;28;20065;-50
2023/05/08 16:48:36;;;;;;;0.38;0.32;;;;;;;17.01;32.59;102025.22;15551638;28;20053;-50
2023/05/08 16:56:08;;;;;;;1.23;0.52;;;;;;;17.04;32.14;102032.91;15550367;28;20042;-52
2023/05/08 17:03:46;;;;;;;1.17;0.40;;;;;;;17.01;32.13;102027.91;15533037;28;20455;-51
2023/05/08 17:11:28;;;;;;;0.75;0.25;;;;;;;16.94;32.17;102023.63;15546371;28;20042;-51
2023/05/08 17:19:02;;;;;;;1.17;0.55;;;;;;;17.12;32.34;102018.25;15546937;28;20076;-53
2023/05/08 17:26:34;;;;;;;0.30;0.30;;;;;;;16.81;33.42;102027.25;15550037;28;20125;-52
2023/05/08 17:34:09;;;;;;;1.58;0.80;;;;;;;17.07;33.80;102023.50;15547110;28;20042;-52
2023/05/08 17:41:41;;;;;;;0.10;0.10;;;;;;;16.57;34.63;102016.13;15548173;28;20049;-52
2023/05/08 17:49:16;;;;;;;0.43;0.35;;;;;;;16.43;34.37;102030.81;15540036;28;20053;-54
2023/05/08 17:56:49;;;;;;;1.45;0.40;;;;;;;16.13;32.38;102029.72;15539978;28;20048;-55
2023/05/08 18:04:25;;;;;;;0.10;0.10;;;;;;;16.08;32.99;102033.91;15542706;28;20128;-57
2023/05/08 18:12:01;;;;;;;1.55;0.60;;;;;;;15.72;33.46;102039.06;15558535;28;20042;-55
2023/05/08 18:19:35;;;;;;;0.00;0.00;;;;;;;15.95;32.99;102041.28;15501627;28;20061;-51
2023/05/08 18:27:08;;;;;;;0.38;0.25;;;;;;;15.51;33.69;102046.34;15558711;28;20410;-52
2023/05/08 18:34:42;;;;;;;0.20;0.10;;;;;;;15.30;33.77;102047.41;15558093;28;20088;-53
2023/05/08 18:42:14;;;;;;;0.65;0.65;;;;;;;15.26;34.43;102051.59;15554578;28;20073;-54
2023/05/08 18:49:51;;;;;;;0.20;0.20;;;;;;;15.24;34.55;102061.75;15557760;28;20103;-52
2023/05/08 18:57:23;;;;;;;0.08;0.08;;;;;;;14.85;35.51;102059.88;15556389;28;20494;-54
2023/05/08 19:04:57;;;;;;;8.53;2.43;;;;;;;14.47;35.70;102067.69;15524855;28;20050;-53
2023/05/08 19:12:30;;;;;;;1.58;0.63;;;;;;;13.97;35.84;102075.16;15551685;28;20053;-54
2023/05/08 19:20:05;;;;;;;0.50;0.50;;;;;;;13.69;36.40;102024.78;15562963;28;20049;-54
2023/05/08 19:27:38;;;;;;;0.98;0.75;;;;;;;13.82;36.97;102074.47;15556898;28;20053;-54
2023/05/08 19:35:12;;;;;;;0.80;0.60;;;;;;;13.52;37.53;102064.75;15554971;28;20112;-50
2023/05/08 19:43:03;;;;;;;;;;;;;;;13.55;37.80;102071.59;15541527;28;20041;-57
2023/05/08 19:50:37;;;;;;;1.17;0.88;;;;;;;13.12;38.84;102062.75;15553905;28;19944;-55
2023/05/08 19:58:10;;;;;;;0.45;0.22;;;;;;;13.11;39.24;102063.78;15553714;28;20045;-54
2023/05/08 20:05:45;;;;;;;;;;;;;;;13.06;40.03;102079.69;15549622;28;20076;-55
2023/05/08 20:13:17;;;;;;;1.08;0.70;;;;;;;12.82;40.58;102076.34;15547215;28;20394;-54
2023/05/08 20:20:52;;;;;;;0.63;0.55;;;;;;;12.90;41.13;102083.47;15539228;28;20046;-52
2023/05/08 20:28:27;;;;;;;1.73;0.85;;;;;;;12.66;41.93;102080.13;15551484;28;20061;-52
2023/05/08 20:36:06;;;;;;;0.32;0.20;;;;;;;12.68;42.29;102083.47;15549108;28;20053;-52
2023/05/08 20:43:39;;;;;;;0.40;0.38;;;;;;;12.66;42.87;102087.38;15548538;28;20049;-53
2023/05/08 20:51:13;;;;;;;0.67;0.60;;;;;;;12.45;43.22;102080.09;15540972;28;20101;-54
2023/05/08 20:58:46;;;;;;;1.05;0.77;;;;;;;12.35;43.49;102084.94;15550044;28;20077;-52
2023/05/08 21:06:20;;;;;;;1.42;0.30;;;;;;;12.36;43.86;102076.69;15548021;28;20155;-52
2023/05/08 21:13:53;;;;;;;0.55;0.15;;;;;;;11.93;44.98;102079.25;15550634;28;20045;-53
2023/05/08 21:21:27;;;;;;;0.83;0.60;;;;;;;11.78;45.41;102061.41;15549463;28;20042;-53
2023/05/08 21:29:02;;;;;;;0.32;0.32;;;;;;;11.59;46.28;102055.56;15555389;28;20064;-52
2023/05/08 21:36:45;;;;;;;0.98;0.30;;;;;;;11.82;46.08;102050.13;15565731;28;20046;-54
2023/05/08 21:44:18;;;;;;;1.30;0.70;;;;;;;11.50;46.95;102051.28;15561955;28;20491;-55
2023/05/08 21:51:54;;;;;;;1.15;0.90;;;;;;;11.30;47.75;102048.31;15559801;28;20050;-54
2023/05/08 21:59:26;;;;;;;0.63;0.60;;;;;;;11.61;47.13;102047.28;15528657;28;20145;-52
2023/05/08 22:07:00;;;;;;;1.03;0.60;;;;;;;11.48;47.33;102042.59;15520323;28;20039;-53
2023/05/08 22:14:33;;;;;;;0.82;0.45;;;;;;;11.14;48.20;102035.84;15509951;28;20491;-56
2023/05/08 22:22:07;;;;;;;1.53;0.73;;;;;;;11.20;48.24;102026.25;15519868;28;20442;-55
2023/05/08 22:29:40;;;;;;;2.25;0.98;;;;;;;11.01;48.78;102027.59;15519637;28;20033;-54
2023/05/08 22:37:14;;;;;;;1.53;0.47;;;;;;;10.96;49.31;102021.94;15542339;28;20034;-54
2023/05/08 22:44:47;;;;;;;0.65;0.52;;;;;;;10.66;50.06;102015.59;15520029;28;20518;-53
2023/05/08 22:52:22;;;;;;;1.20;0.82;;;;;;;10.59;50.13;102011.97;15518338;28;20127;-53
2023/05/08 22:59:58;;;;;;;0.77;0.40;;;;;;;10.39;50.67;102008.91;15512393;28;20137;-52
2023/05/08 23:07:32;;;;;;;0.93;0.68;;;;;;;10.47;50.69;102007.00;15541440;28;20073;-49
2023/05/08 23:15:06;;;;;;;0.60;0.40;;;;;;;10.38;50.78;101991.97;15556588;28;20590;-49
2023/05/08 23:22:40;;;;;;;2.67;0.80;;;;;;;10.07;51.79;101985.75;15553896;28;20501;-52
2023/05/08 23:30:15;;;;;;;1.98;1.27;;;;;;;9.95;52.27;101988.84;15538299;28;20527;-51
2023/05/08 23:37:49;;;;;;;0.52;0.40;;;;;;;9.99;51.96;101975.94;15540890;28;20137;-50
2023/05/08 23:45:31;;;;;;;0.30;0.30;;;;;;;9.82;52.47;101960.91;15551632;28;20053;-48
2023/05/08 23:53:05;;;;;;;2.50;0.43;;;;;;;9.66;52.69;101957.31;15542601;28;20125;-49
